ZW-0020 weather

Public forecast

Using degrees Celsius for public forecast. Weather courtesy of forecast.io.

Closest aviation weather report (METAR) to Chigwell Airport

Report is more than 6 hours old.

Closest report is Robert Gabriel Mugabe International Airport, 65.8 nm (121.9 km) ENE. Retrieved 2020/08/13 13:00 UTC (16 hours ago):

FVRG 131300Z 14012KT 110V180 CAVOK 27/M14 Q1023 NOSIG

Closest aviation forecast (TAF) to Chigwell Airport

Forecast is more than 12 hours old.

Closest forecast is Robert Gabriel Mugabe International Airport, 65.8 nm (121.9 km) ENE. Retrieved 2020/08/13 06:00 UTC (23 hours ago):

TAF FVRG 130400Z 1306/1412 VRB03KT CAVOK BECMG 1312/1314 13008KT